createdAt,value
2017-12-14T00:02:19.622Z,2.53
2017-12-14T00:04:47.087Z,2.57
2017-12-14T00:07:14.526Z,2.70
2017-12-14T00:09:42.731Z,2.30
2017-12-14T00:12:10.185Z,2.67
2017-12-14T00:14:37.633Z,2.37
2017-12-14T00:17:05.088Z,2.40
2017-12-14T00:19:32.533Z,2.20
2017-12-14T00:22:00.751Z,1.93
2017-12-14T00:24:27.704Z,2.00
2017-12-14T00:26:55.154Z,2.10
2017-12-14T00:29:22.598Z,2.10
2017-12-14T00:31:50.045Z,1.70
2017-12-14T00:34:17.493Z,1.80
2017-12-14T00:36:44.942Z,1.90
2017-12-14T00:39:12.398Z,1.60
2017-12-14T00:41:39.859Z,1.80
2017-12-14T00:44:08.070Z,1.63
2017-12-14T00:46:35.522Z,1.60
2017-12-14T00:49:02.963Z,1.70
2017-12-14T00:51:30.470Z,1.80
2017-12-14T00:53:57.865Z,1.70
2017-12-14T00:56:25.317Z,1.70
2017-12-14T00:58:52.762Z,1.47
2017-12-14T01:01:20.214Z,1.70
2017-12-14T01:03:48.421Z,1.40
2017-12-14T01:06:15.881Z,1.70
2017-12-14T01:08:43.329Z,1.40
2017-12-14T01:11:10.777Z,1.37
2017-12-14T01:13:38.765Z,1.30
2017-12-14T01:16:06.966Z,1.43
2017-12-14T01:18:34.426Z,1.30
2017-12-14T01:21:01.871Z,1.50
2017-12-14T01:23:29.334Z,1.30
2017-12-14T01:25:56.773Z,1.70
2017-12-14T01:28:24.225Z,1.30
2017-12-14T01:30:52.474Z,1.60
2017-12-14T01:33:19.950Z,1.27
2017-12-14T01:35:47.397Z,1.33
2017-12-14T01:38:15.622Z,1.27
2017-12-14T01:40:43.086Z,1.10
2017-12-14T01:43:10.545Z,1.30
2017-12-14T01:45:37.990Z,1.27
2017-12-14T01:48:06.228Z,1.20
2017-12-14T01:50:33.662Z,1.20
2017-12-14T01:53:01.886Z,1.23
2017-12-14T01:55:29.338Z,1.30
2017-12-14T01:57:56.785Z,1.20
2017-12-14T02:00:24.241Z,1.40
2017-12-14T02:02:51.685Z,1.10
2017-12-14T02:05:19.127Z,1.30
2017-12-14T02:07:47.361Z,1.30
2017-12-14T02:10:14.826Z,1.20
2017-12-14T02:12:42.261Z,1.27
2017-12-14T02:15:09.721Z,1.30
2017-12-14T02:17:37.161Z,1.03
2017-12-14T02:20:04.627Z,1.30
2017-12-14T02:22:32.081Z,1.17
2017-12-14T02:24:59.538Z,1.30
2017-12-14T02:27:26.995Z,1.10
2017-12-14T02:29:54.451Z,1.20
2017-12-14T02:32:21.905Z,1.10
2017-12-14T02:34:49.370Z,1.00
2017-12-14T02:37:16.805Z,1.17
2017-12-14T02:39:44.266Z,1.00
2017-12-14T02:42:11.706Z,1.00
2017-12-14T02:44:39.926Z,1.10
2017-12-14T02:47:07.365Z,1.07
2017-12-14T02:49:34.826Z,1.20
2017-12-14T02:52:03.037Z,1.10
2017-12-14T02:54:30.481Z,1.10
2017-12-14T02:56:57.930Z,1.20
2017-12-14T02:59:25.387Z,1.10
2017-12-14T03:01:53.594Z,1.13
2017-12-14T03:04:21.828Z,1.00
2017-12-14T03:06:49.282Z,1.30
2017-12-14T03:09:16.724Z,1.10
2017-12-14T03:11:44.170Z,1.17
2017-12-14T03:14:12.377Z,1.10
2017-12-14T03:16:39.835Z,1.20
2017-12-14T03:19:07.289Z,1.00
2017-12-14T03:21:34.739Z,1.20
2017-12-14T03:24:02.184Z,1.13
2017-12-14T03:26:29.641Z,1.10
2017-12-14T03:28:57.087Z,0.90
2017-12-14T03:31:25.319Z,1.27
2017-12-14T03:33:52.757Z,1.03
2017-12-14T03:36:20.214Z,0.97
2017-12-14T03:38:47.668Z,1.13
2017-12-14T03:41:15.118Z,1.40
2017-12-14T03:43:42.566Z,1.10
2017-12-14T03:46:10.017Z,1.40
2017-12-14T03:48:37.457Z,1.20
2017-12-14T03:51:05.681Z,1.17
2017-12-14T03:53:33.310Z,1.10
2017-12-14T03:56:00.754Z,1.23
2017-12-14T03:58:28.979Z,1.23
2017-12-14T04:00:56.437Z,2.00
2017-12-14T04:03:23.878Z,1.57
2017-12-14T04:05:51.334Z,1.10
2017-12-14T04:08:18.787Z,1.10
2017-12-14T04:10:46.237Z,1.07
2017-12-14T04:13:13.719Z,1.10
2017-12-14T04:15:41.159Z,1.63
2017-12-14T04:18:08.614Z,1.10
2017-12-14T04:20:36.053Z,1.23
2017-12-14T04:23:03.502Z,1.20
2017-12-14T04:25:31.727Z,1.47
2017-12-14T04:27:59.182Z,1.20
2017-12-14T04:30:26.630Z,1.10
2017-12-14T04:32:54.086Z,1.20
2017-12-14T04:35:21.535Z,1.30
2017-12-14T04:37:48.990Z,1.20
2017-12-14T04:40:16.450Z,1.00
2017-12-14T04:42:43.911Z,1.10
2017-12-14T04:45:11.360Z,1.20
2017-12-14T04:47:38.816Z,1.23
2017-12-14T04:50:06.258Z,1.37
2017-12-14T04:52:34.470Z,1.00
2017-12-14T04:55:01.930Z,1.00
2017-12-14T04:57:30.138Z,1.07
2017-12-14T04:59:57.594Z,1.10
2017-12-14T05:02:25.041Z,1.20
2017-12-14T05:04:52.502Z,1.00
2017-12-14T05:07:19.951Z,1.03
2017-12-14T05:09:47.398Z,1.10
2017-12-14T05:12:14.840Z,1.40
2017-12-14T05:14:42.320Z,1.53
2017-12-14T05:17:09.761Z,1.10
2017-12-14T05:19:37.223Z,1.10
2017-12-14T05:22:04.684Z,1.10
2017-12-14T05:24:32.134Z,1.03
2017-12-14T05:26:59.577Z,1.27
2017-12-14T05:29:27.029Z,1.00
2017-12-14T05:31:55.243Z,1.30
2017-12-14T05:34:22.693Z,1.00
2017-12-14T05:36:50.144Z,1.27
2017-12-14T05:39:17.595Z,1.50
2017-12-14T05:41:45.798Z,1.20
2017-12-14T05:44:13.250Z,1.00
2017-12-14T05:46:40.699Z,1.20
2017-12-14T05:49:08.159Z,1.00
2017-12-14T05:51:35.601Z,1.10
2017-12-14T05:54:03.053Z,1.60
2017-12-14T05:56:30.502Z,1.33
2017-12-14T05:58:57.963Z,1.70
2017-12-14T06:01:25.406Z,1.40
2017-12-14T06:03:52.878Z,1.43
2017-12-14T06:06:20.328Z,1.13
2017-12-14T06:08:48.563Z,1.00
2017-12-14T06:11:16.769Z,1.33
2017-12-14T06:13:44.222Z,1.33
2017-12-14T06:16:11.682Z,1.70
2017-12-14T06:18:39.127Z,1.20
2017-12-14T06:21:07.359Z,1.50
2017-12-14T06:23:35.560Z,1.10
2017-12-14T06:26:03.776Z,1.50
2017-12-14T06:28:31.990Z,1.10
2017-12-14T06:30:59.438Z,1.40
2017-12-14T06:33:26.881Z,1.40
2017-12-14T06:35:54.331Z,1.20
2017-12-14T06:38:21.778Z,1.37
2017-12-14T06:40:50.002Z,1.60
2017-12-14T06:43:17.444Z,1.30
2017-12-14T06:45:44.896Z,1.53
2017-12-14T06:48:12.354Z,1.57
2017-12-14T06:50:40.580Z,1.30
2017-12-14T06:53:08.029Z,1.40
2017-12-14T06:55:35.471Z,1.30
2017-12-14T06:58:03.693Z,1.63
2017-12-14T07:00:31.143Z,1.60
2017-12-14T07:03:10.286Z,2.03
2017-12-14T07:05:38.502Z,1.70
2017-12-14T07:08:06.724Z,1.70
2017-12-14T07:10:34.173Z,1.40
2017-12-14T07:13:02.391Z,1.63
2017-12-14T07:15:29.837Z,1.63
2017-12-14T07:17:57.289Z,1.60
2017-12-14T07:20:24.735Z,1.60
2017-12-14T07:22:52.185Z,1.27
2017-12-14T07:25:19.635Z,1.57
2017-12-14T07:27:47.096Z,1.50
2017-12-14T07:30:14.537Z,1.37
2017-12-14T07:32:41.990Z,1.73
2017-12-14T07:35:09.434Z,1.47
2017-12-14T07:37:37.645Z,1.43
2017-12-14T07:40:05.102Z,1.40
2017-12-14T07:42:45.119Z,1.67
2017-12-14T07:45:24.352Z,1.53
2017-12-14T07:47:59.649Z,1.70
2017-12-14T07:50:27.859Z,1.73
2017-12-14T07:52:56.083Z,1.63
2017-12-14T07:55:23.533Z,1.77
2017-12-14T07:57:50.991Z,1.77
2017-12-14T08:00:18.442Z,1.47
2017-12-14T08:02:46.650Z,1.73
2017-12-14T08:05:14.095Z,1.50
2017-12-14T08:07:41.559Z,1.57
2017-12-14T08:10:09.006Z,1.50
2017-12-14T08:12:36.471Z,1.60
2017-12-14T08:15:03.914Z,1.40
2017-12-14T08:17:31.373Z,1.40
2017-12-14T08:19:58.821Z,1.90
2017-12-14T08:22:26.277Z,1.30
2017-12-14T08:24:53.733Z,1.70
2017-12-14T08:27:21.950Z,1.43
2017-12-14T08:29:49.412Z,1.40
2017-12-14T08:32:16.866Z,1.80
2017-12-14T08:34:44.318Z,1.27
2017-12-14T08:37:11.776Z,1.40
2017-12-14T08:39:39.216Z,1.27
2017-12-14T08:42:07.449Z,1.43
2017-12-14T08:44:34.903Z,1.30
2017-12-14T08:47:03.125Z,1.30
2017-12-14T08:49:30.585Z,1.20
2017-12-14T08:51:58.054Z,1.30
2017-12-14T08:54:25.502Z,1.40
2017-12-14T08:56:52.948Z,1.10
2017-12-14T08:59:21.184Z,0.90
2017-12-14T09:01:48.644Z,1.17
2017-12-14T09:04:16.850Z,1.30
2017-12-14T09:06:45.071Z,1.53
2017-12-14T09:09:12.508Z,1.43
2017-12-14T09:11:40.736Z,1.20
2017-12-14T09:14:08.998Z,1.20
2017-12-14T09:16:37.229Z,1.30
2017-12-14T09:19:04.675Z,1.07
2017-12-14T09:21:32.129Z,1.40
2017-12-14T09:23:59.585Z,1.37
2017-12-14T09:26:27.034Z,1.37
2017-12-14T09:28:55.254Z,1.30
2017-12-14T09:31:22.702Z,1.47
2017-12-14T09:33:50.150Z,1.73
2017-12-14T09:36:17.615Z,1.40
2017-12-14T09:38:45.054Z,1.20
2017-12-14T09:41:12.509Z,1.60
2017-12-14T09:43:39.971Z,1.37
2017-12-14T09:46:07.430Z,1.67
2017-12-14T09:48:34.881Z,1.40
2017-12-14T09:51:02.333Z,1.50
2017-12-14T09:53:29.794Z,1.40
2017-12-14T09:55:57.239Z,1.40
2017-12-14T09:58:24.692Z,1.60
2017-12-14T10:00:52.908Z,1.20
2017-12-14T10:03:20.361Z,1.47
2017-12-14T10:05:47.814Z,1.20
2017-12-14T10:08:15.270Z,1.50
2017-12-14T10:10:42.712Z,1.30
2017-12-14T10:13:10.938Z,1.40
2017-12-14T10:15:39.151Z,1.53
2017-12-14T10:18:06.601Z,1.30
2017-12-14T10:20:34.819Z,1.53
2017-12-14T10:23:02.278Z,1.20
2017-12-14T10:25:29.725Z,1.40
2017-12-14T10:27:57.178Z,1.30
2017-12-14T10:30:24.617Z,1.80
2017-12-14T10:32:52.091Z,1.57
2017-12-14T10:35:19.529Z,1.33
2017-12-14T10:37:46.980Z,1.60
2017-12-14T10:40:14.435Z,1.70
2017-12-14T10:42:41.941Z,1.43
2017-12-14T10:45:09.378Z,1.47
2017-12-14T10:47:36.826Z,1.60
2017-12-14T10:50:04.278Z,1.60
2017-12-14T10:52:31.728Z,2.03
2017-12-14T10:54:59.955Z,1.67
2017-12-14T10:57:28.172Z,1.63
2017-12-14T10:59:55.625Z,1.47
2017-12-14T11:02:23.073Z,1.40
2017-12-14T11:04:50.542Z,1.67
2017-12-14T11:07:17.998Z,1.73
2017-12-14T11:09:46.211Z,1.50
2017-12-14T11:12:13.657Z,1.53
2017-12-14T11:14:41.114Z,1.53
2017-12-14T11:17:08.572Z,1.70
2017-12-14T11:19:36.021Z,1.73
2017-12-14T11:22:03.472Z,1.60
2017-12-14T11:24:30.942Z,1.50
2017-12-14T11:26:58.402Z,1.53
2017-12-14T11:29:25.854Z,1.50
2017-12-14T11:31:53.312Z,1.80
2017-12-14T11:34:20.766Z,1.47
2017-12-14T11:36:48.221Z,1.97
2017-12-14T11:39:15.667Z,1.87
2017-12-14T11:41:43.125Z,2.67
2017-12-14T11:44:10.586Z,1.20
2017-12-14T11:46:38.064Z,1.77
2017-12-14T11:49:05.515Z,1.60
2017-12-14T11:51:32.974Z,1.40
2017-12-14T11:54:00.420Z,1.30
2017-12-14T11:56:27.878Z,1.53
2017-12-14T11:58:55.319Z,1.70
2017-12-14T12:01:22.790Z,1.60
2017-12-14T12:03:50.302Z,1.30
2017-12-14T12:06:18.453Z,1.50
2017-12-14T12:08:45.943Z,1.23
2017-12-14T12:11:13.399Z,1.40
2017-12-14T12:13:41.617Z,1.53
2017-12-14T12:16:09.070Z,1.47
2017-12-14T12:18:36.525Z,1.47
2017-12-14T12:21:04.002Z,1.40
2017-12-14T12:23:31.441Z,1.63
2017-12-14T12:25:58.890Z,1.73
2017-12-14T12:28:26.345Z,1.43
2017-12-14T12:30:53.790Z,1.67
2017-12-14T12:33:21.232Z,1.33
2017-12-14T12:35:49.455Z,1.37
2017-12-14T12:38:16.917Z,1.30
2017-12-14T12:40:44.362Z,1.47
2017-12-14T12:43:11.831Z,1.60
2017-12-14T12:45:39.278Z,1.40
2017-12-14T12:48:06.743Z,1.47
2017-12-14T12:50:34.190Z,1.73
2017-12-14T12:53:01.666Z,1.90
2017-12-14T12:55:29.113Z,2.00
2017-12-14T12:57:57.322Z,1.70
2017-12-14T13:00:25.546Z,1.40
2017-12-14T13:02:53.017Z,1.30
2017-12-14T13:05:20.462Z,1.67
2017-12-14T13:07:47.914Z,1.70
2017-12-14T13:10:15.370Z,1.60
2017-12-14T13:12:42.812Z,1.33
2017-12-14T13:15:10.262Z,1.50
2017-12-14T13:17:37.705Z,1.50
2017-12-14T13:20:05.923Z,1.70
2017-12-14T13:22:33.378Z,1.80
2017-12-14T13:25:00.846Z,1.40
2017-12-14T13:27:28.300Z,1.30
2017-12-14T13:29:55.751Z,1.73
2017-12-14T13:32:23.204Z,1.20
2017-12-14T13:34:51.417Z,1.50
2017-12-14T13:37:18.862Z,1.37
2017-12-14T13:39:46.311Z,1.33
2017-12-14T13:42:13.752Z,1.30
2017-12-14T13:44:41.207Z,1.30
2017-12-14T13:47:08.653Z,1.50
2017-12-14T13:49:36.101Z,1.40
2017-12-14T13:52:03.566Z,1.50
2017-12-14T13:54:31.040Z,1.40
2017-12-14T13:56:59.230Z,1.53
2017-12-14T13:59:26.693Z,1.33
2017-12-14T14:01:54.136Z,1.20
2017-12-14T14:04:21.595Z,1.23
2017-12-14T14:06:49.044Z,1.40
2017-12-14T14:09:16.487Z,1.27
2017-12-14T14:11:43.959Z,1.50
2017-12-14T14:14:11.428Z,1.40
2017-12-14T14:16:38.858Z,1.60
2017-12-14T14:19:06.306Z,1.33
2017-12-14T14:21:33.754Z,1.20
2017-12-14T14:24:01.203Z,1.50
2017-12-14T14:26:29.429Z,1.30
2017-12-14T14:28:57.637Z,1.43
2017-12-14T14:31:25.088Z,1.50
2017-12-14T14:33:52.539Z,1.70
2017-12-14T14:36:19.995Z,1.30
2017-12-14T14:38:47.446Z,1.37
2017-12-14T14:41:14.908Z,1.70
2017-12-14T14:43:42.362Z,1.30
2017-12-14T14:46:09.818Z,1.50
2017-12-14T14:48:37.259Z,1.40
2017-12-14T14:51:04.714Z,1.37
2017-12-14T14:53:32.166Z,1.33
2017-12-14T14:55:59.622Z,1.37
2017-12-14T14:58:27.074Z,1.60
2017-12-14T15:00:54.530Z,1.40
2017-12-14T15:03:22.752Z,1.30
2017-12-14T15:05:50.202Z,1.40
2017-12-14T15:08:17.662Z,1.30
2017-12-14T15:10:45.114Z,1.23
2017-12-14T15:13:12.580Z,1.50
2017-12-14T15:15:40.029Z,1.20
2017-12-14T15:18:07.483Z,1.30
2017-12-14T15:20:35.696Z,1.40
2017-12-14T15:23:03.923Z,1.50
2017-12-14T15:25:31.365Z,1.70
2017-12-14T15:27:58.821Z,1.30
2017-12-14T15:30:26.258Z,1.70
2017-12-14T15:32:53.718Z,1.60
2017-12-14T15:35:21.162Z,1.50
2017-12-14T15:37:49.397Z,1.80
2017-12-14T15:40:16.847Z,1.20
2017-12-14T15:42:44.315Z,1.40
2017-12-14T15:45:11.768Z,1.90
2017-12-14T15:47:39.220Z,1.47
2017-12-14T15:50:06.690Z,1.47
2017-12-14T15:52:34.134Z,1.20
2017-12-14T15:55:01.594Z,1.70
2017-12-14T15:57:29.058Z,1.63
2017-12-14T15:59:56.502Z,1.77
2017-12-14T16:02:23.960Z,1.73
2017-12-14T16:04:51.419Z,1.73
2017-12-14T16:07:18.869Z,1.40
2017-12-14T16:09:46.333Z,1.40
2017-12-14T16:12:13.781Z,1.60
2017-12-14T16:14:42.005Z,1.67
2017-12-14T16:17:10.265Z,1.57
2017-12-14T16:19:37.685Z,1.60
2017-12-14T16:22:05.129Z,1.77
2017-12-14T16:24:32.586Z,1.40
2017-12-14T16:27:00.046Z,1.60
2017-12-14T16:29:27.489Z,1.70
2017-12-14T16:31:55.701Z,1.77
2017-12-14T16:34:23.148Z,1.63
2017-12-14T16:36:50.613Z,1.93
2017-12-14T16:39:18.046Z,1.90
2017-12-14T16:41:45.508Z,1.73
2017-12-14T16:44:12.956Z,1.63
2017-12-14T16:46:40.414Z,1.90
2017-12-14T16:49:08.618Z,1.87
2017-12-14T16:51:36.074Z,1.63
2017-12-14T16:54:03.528Z,1.60
2017-12-14T16:56:31.741Z,1.90
2017-12-14T16:58:59.956Z,2.20
2017-12-14T17:01:27.416Z,1.67
2017-12-14T17:03:54.857Z,1.90
2017-12-14T17:06:22.328Z,1.80
2017-12-14T17:08:49.790Z,1.80
2017-12-14T17:11:18.010Z,1.60
2017-12-14T17:13:45.526Z,2.07
2017-12-14T17:16:13.775Z,1.90
2017-12-14T17:18:41.983Z,2.20
2017-12-14T17:21:09.441Z,2.50
2017-12-14T17:23:36.897Z,2.33
2017-12-14T17:26:04.375Z,2.20
2017-12-14T17:28:31.812Z,1.93
2017-12-14T17:30:59.266Z,2.10
2017-12-14T17:33:26.723Z,2.50
2017-12-14T17:35:54.176Z,2.50
2017-12-14T17:38:22.394Z,2.70
2017-12-14T17:40:49.848Z,2.73
2017-12-14T17:43:17.305Z,2.70
2017-12-14T17:45:44.748Z,3.00
2017-12-14T17:48:12.203Z,2.77
2017-12-14T17:50:39.653Z,2.70
2017-12-14T17:53:07.153Z,2.80
2017-12-14T17:55:36.125Z,3.93
2017-12-14T17:58:03.580Z,4.97
2017-12-14T18:00:31.062Z,6.57
2017-12-14T18:02:59.302Z,6.20
2017-12-14T18:05:26.753Z,6.03
2017-12-14T18:07:55.350Z,7.00
2017-12-14T18:10:22.817Z,7.10
2017-12-14T18:12:50.282Z,6.27
2017-12-14T18:15:17.763Z,5.63
2017-12-14T18:17:45.990Z,6.00
2017-12-14T18:20:13.438Z,5.83
2017-12-14T18:22:40.898Z,5.63
2017-12-14T18:25:08.386Z,5.27
2017-12-14T18:27:35.853Z,5.27
2017-12-14T18:30:04.107Z,5.30
2017-12-14T18:32:31.554Z,5.87
2017-12-14T18:34:59.029Z,4.63
2017-12-14T18:37:26.517Z,5.50
2017-12-14T18:39:53.973Z,5.07
2017-12-14T18:42:22.191Z,4.90
2017-12-14T18:44:51.799Z,4.17
2017-12-14T18:47:19.265Z,4.13
2017-12-14T18:49:46.734Z,4.40
2017-12-14T18:52:14.214Z,4.73
2017-12-14T18:54:41.667Z,4.17
2017-12-14T18:57:09.126Z,4.10
2017-12-14T18:59:36.601Z,4.40
2017-12-14T19:02:04.054Z,4.67
2017-12-14T19:04:32.267Z,4.13
2017-12-14T19:06:59.726Z,4.27
2017-12-14T19:09:27.193Z,4.37
2017-12-14T19:11:54.703Z,3.90
2017-12-14T19:14:22.166Z,4.30
2017-12-14T19:16:49.622Z,4.30
2017-12-14T19:19:17.833Z,3.80
2017-12-14T19:21:45.321Z,3.90
2017-12-14T19:24:12.807Z,4.30
2017-12-14T19:26:40.423Z,3.43
2017-12-14T19:29:08.673Z,3.50
2017-12-14T19:31:36.158Z,3.30
2017-12-14T19:34:03.654Z,3.43
2017-12-14T19:36:31.257Z,4.30
2017-12-14T19:38:58.718Z,3.80
2017-12-14T19:41:26.942Z,3.27
2017-12-14T19:43:54.404Z,3.60
2017-12-14T19:46:21.871Z,3.93
2017-12-14T19:48:50.115Z,3.80
2017-12-14T19:51:19.503Z,3.93
2017-12-14T19:53:46.954Z,3.90
2017-12-14T19:56:14.509Z,4.00
2017-12-14T19:58:41.983Z,3.30
2017-12-14T20:01:09.551Z,3.13
2017-12-14T20:03:37.009Z,3.40
2017-12-14T20:06:04.460Z,3.80
2017-12-14T20:08:31.927Z,3.87
2017-12-14T20:10:59.387Z,4.23
2017-12-14T20:13:26.867Z,4.10
2017-12-14T20:15:54.328Z,4.27
2017-12-14T20:18:22.575Z,3.90
2017-12-14T20:20:50.071Z,3.60
2017-12-14T20:23:17.562Z,4.37
2017-12-14T20:25:45.021Z,3.60
2017-12-14T20:28:12.503Z,4.30
2017-12-14T20:30:39.958Z,4.70
2017-12-14T20:33:07.423Z,4.30
2017-12-14T20:35:34.898Z,3.53
2017-12-14T20:38:02.366Z,3.30
2017-12-14T20:40:30.785Z,3.47
2017-12-14T20:42:58.268Z,3.70
2017-12-14T20:45:25.736Z,3.57
2017-12-14T20:47:53.186Z,3.50
2017-12-14T20:50:20.683Z,3.93
2017-12-14T20:52:48.930Z,4.07
2017-12-14T20:55:16.454Z,3.77
2017-12-14T20:57:44.632Z,3.20
2017-12-14T21:00:12.120Z,3.40
2017-12-14T21:02:39.587Z,3.00
2017-12-14T21:05:07.059Z,3.27
2017-12-14T21:07:35.300Z,3.37
2017-12-14T21:10:02.841Z,3.00
2017-12-14T21:12:30.303Z,3.00
2017-12-14T21:14:57.751Z,3.13
2017-12-14T21:17:25.219Z,3.30
2017-12-14T21:19:52.686Z,3.07
2017-12-14T21:22:20.955Z,3.13
2017-12-14T21:24:48.411Z,2.83
2017-12-14T21:27:15.883Z,2.60
2017-12-14T21:29:43.370Z,3.37
2017-12-14T21:32:10.821Z,3.20
2017-12-14T21:34:38.294Z,2.50
2017-12-14T21:37:06.551Z,2.90
2017-12-14T21:39:34.010Z,3.37
2017-12-14T21:42:01.470Z,3.33
2017-12-14T21:44:28.946Z,2.70
2017-12-14T21:46:57.180Z,3.20
2017-12-14T21:49:24.655Z,3.30
2017-12-14T21:51:52.103Z,3.23
2017-12-14T21:54:19.590Z,3.80
2017-12-14T21:56:47.814Z,3.77
2017-12-14T21:59:15.271Z,3.80
2017-12-14T22:01:42.743Z,3.20
2017-12-14T22:04:10.266Z,3.37
2017-12-14T22:06:37.717Z,2.93
2017-12-14T22:09:05.186Z,2.93
2017-12-14T22:11:32.638Z,3.30
2017-12-14T22:14:00.098Z,3.00
2017-12-14T22:16:27.558Z,3.53
2017-12-14T22:18:55.041Z,3.40
2017-12-14T22:21:22.498Z,3.37
2017-12-14T22:23:49.975Z,3.30
2017-12-14T22:26:18.255Z,3.47
2017-12-14T22:28:45.719Z,3.57
2017-12-14T22:31:13.957Z,3.73
2017-12-14T22:33:41.406Z,3.20
2017-12-14T22:36:08.870Z,3.07
2017-12-14T22:38:36.338Z,3.80
2017-12-14T22:41:03.805Z,3.10
2017-12-14T22:43:31.286Z,3.40
2017-12-14T22:45:59.527Z,3.30
2017-12-14T22:48:26.988Z,3.50
2017-12-14T22:50:54.475Z,3.47
2017-12-14T22:53:21.938Z,3.50
2017-12-14T22:55:50.175Z,3.33
2017-12-14T22:58:17.631Z,3.27
2017-12-14T23:00:45.173Z,3.23
2017-12-14T23:03:12.970Z,3.70
2017-12-14T23:05:40.452Z,3.93
2017-12-14T23:08:07.950Z,3.30
2017-12-14T23:10:35.398Z,3.60
2017-12-14T23:13:02.934Z,3.33
2017-12-14T23:15:30.330Z,3.67
2017-12-14T23:17:57.790Z,3.90
2017-12-14T23:20:25.247Z,3.47
2017-12-14T23:22:52.720Z,3.37
2017-12-14T23:25:20.176Z,3.80
2017-12-14T23:27:47.638Z,4.00
2017-12-14T23:30:15.198Z,3.50
2017-12-14T23:32:42.671Z,3.77
2017-12-14T23:35:10.908Z,3.10
2017-12-14T23:37:38.374Z,3.90
2017-12-14T23:40:05.857Z,3.70
2017-12-14T23:42:34.087Z,3.50
2017-12-14T23:45:01.553Z,3.80
2017-12-14T23:47:29.027Z,3.50
2017-12-14T23:49:56.491Z,3.63
2017-12-14T23:52:23.942Z,3.03
2017-12-14T23:54:51.491Z,3.30
2017-12-14T23:57:18.987Z,3.53
2017-12-14T23:59:46.446Z,3.20
